Time;durP1;ratioP1;P1;durP2;ratioP2;P2;SDS_P1;SDS_P2;PMS_P1;PMS_P2;Temp;Humidity;BMP_temperature;BMP_pressure;BME280_temperature;BME280_humidity;BME280_pressure;Samples;Min_cycle;Max_cycle;Signal;HPM_P1;HPM_P2
2021/01/20 00:00:43;;;;;;;76.50;33.10;;;;;;;;;;4943658;29;20402;-89
2021/01/20 00:03:09;;;;;;;90.07;35.92;;;;;;;;;;4943423;29;20464;-86
2021/01/20 00:05:35;;;;;;;77.55;31.02;;;;;;;;;;4943409;29;20034;-89
2021/01/20 00:08:01;;;;;;;69.05;30.48;;;;;;;;;;4926081;29;20308;-89
2021/01/20 00:10:27;;;;;;;61.30;29.75;;;;;;;;;;4943476;29;20027;-88
2021/01/20 00:12:53;;;;;;;58.00;30.30;;;;;;;;;;4943275;29;20079;-89
2021/01/20 00:15:21;;;;;;;54.78;28.25;;;;;;;;;;4943358;29;20091;-88
2021/01/20 00:17:47;;;;;;;67.15;31.95;;;;;;;;;;4943215;29;20403;-89
2021/01/20 00:20:13;;;;;;;68.45;32.38;;;;;;;;;;4926147;29;20039;-88
2021/01/20 00:22:41;;;;;;;88.38;36.65;;;;;;;;;;4926219;29;20087;-88
2021/01/20 00:25:08;;;;;;;69.55;31.52;;;;;;;;;;4943169;29;20032;-88
2021/01/20 00:27:34;;;;;;;76.68;32.53;;;;;;;;;;4943118;29;20031;-89
2021/01/20 00:30:00;;;;;;;78.18;34.80;;;;;;;;;;4925549;29;20052;-89
2021/01/20 00:32:26;;;;;;;82.70;34.47;;;;;;;;;;4942775;29;20074;-88
2021/01/20 00:44:04;;;;;;;74.47;30.92;;;;;;;;;;4943127;29;20070;-88
2021/01/20 00:46:31;;;;;;;70.80;30.38;;;;;;;;;;4942927;29;20028;-88
2021/01/20 00:48:57;;;;;;;83.80;32.40;;;;;;;;;;4925748;29;20034;-88
2021/01/20 00:52:00;;;;;;;73.85;30.05;;;;;;;;;;4942338;29;20027;-89
2021/01/20 00:54:26;;;;;;;59.40;27.67;;;;;;;;;;4942179;29;20067;-88
2021/01/20 00:56:52;;;;;;;47.65;26.48;;;;;;;;;;4925748;29;20035;-88
2021/01/20 00:59:18;;;;;;;43.25;24.02;;;;;;;;;;4942393;29;20035;-89
2021/01/20 01:01:44;;;;;;;42.90;25.60;;;;;;;;;;4925007;29;20075;-90
2021/01/20 01:04:10;;;;;;;46.65;24.67;;;;;;;;;;4941586;29;20135;-91
2021/01/20 01:06:38;;;;;;;50.92;27.00;;;;;;;;;;4942536;29;20028;-92
2021/01/20 01:09:05;;;;;;;66.15;28.88;;;;;;;;;;4942358;29;20075;-92
2021/01/20 01:11:32;;;;;;;67.63;28.98;;;;;;;;;;4925526;29;20035;-92
2021/01/20 01:13:58;;;;;;;68.93;28.17;;;;;;;;;;4942343;29;20119;-91
2021/01/20 01:16:24;;;;;;;95.18;32.42;;;;;;;;;;4942422;29;20040;-91
2021/01/20 01:18:50;;;;;;;90.45;33.05;;;;;;;;;;4942085;29;20490;-93
2021/01/20 01:21:16;;;;;;;82.80;29.20;;;;;;;;;;4941906;29;20031;-93
2021/01/20 01:23:42;;;;;;;78.78;29.33;;;;;;;;;;4942119;29;20035;-92
2021/01/20 01:26:08;;;;;;;77.93;31.08;;;;;;;;;;4925137;29;20110;-93
2021/01/20 01:28:34;;;;;;;78.72;31.58;;;;;;;;;;4941483;29;20027;-91
2021/01/20 01:31:00;;;;;;;68.30;27.50;;;;;;;;;;4924718;29;20067;-92
2021/01/20 01:33:26;;;;;;;60.55;27.42;;;;;;;;;;4941566;29;20027;-92
2021/01/20 01:35:53;;;;;;;57.40;26.42;;;;;;;;;;4941623;29;20036;-92
2021/01/20 01:38:19;;;;;;;48.22;25.00;;;;;;;;;;4941622;29;20411;-92
2021/01/20 01:40:45;;;;;;;41.95;23.58;;;;;;;;;;4941569;29;20347;-92
2021/01/20 01:43:11;;;;;;;40.13;22.25;;;;;;;;;;4941821;29;20035;-93
2021/01/20 01:45:37;;;;;;;43.58;23.02;;;;;;;;;;4941560;29;20110;-93
2021/01/20 01:48:03;;;;;;;40.30;22.45;;;;;;;;;;4924786;29;20144;-92
2021/01/20 01:50:29;;;;;;;43.50;23.92;;;;;;;;;;4941626;29;20111;-92
2021/01/20 01:52:55;;;;;;;44.08;24.23;;;;;;;;;;4940787;29;20028;-93
2021/01/20 01:55:21;;;;;;;43.92;23.42;;;;;;;;;;4924326;29;20423;-92
2021/01/20 01:57:47;;;;;;;39.47;22.77;;;;;;;;;;4924243;29;20422;-94
2021/01/20 02:00:14;;;;;;;39.20;22.00;;;;;;;;;;4941189;29;20322;-93
2021/01/20 02:02:41;;;;;;;42.85;23.50;;;;;;;;;;4941525;29;20035;-92
2021/01/20 02:05:07;;;;;;;44.92;24.40;;;;;;;;;;4941124;29;20039;-92
2021/01/20 02:07:35;;;;;;;42.97;24.35;;;;;;;;;;4924035;29;20046;-93
2021/01/20 02:10:02;;;;;;;41.53;23.27;;;;;;;;;;4941416;29;20059;-93
2021/01/20 02:12:34;;;;;;;42.63;23.02;;;;;;;;;;4941232;29;20040;-93
2021/01/20 02:15:03;;;;;;;41.83;23.10;;;;;;;;;;4941384;29;20099;-93
2021/01/20 02:17:38;;;;;;;45.65;22.90;;;;;;;;;;4924534;29;20355;-94
2021/01/20 02:20:05;;;;;;;43.85;23.15;;;;;;;;;;4923965;29;20075;-93
2021/01/20 02:22:40;;;;;;;40.63;23.30;;;;;;;;;;4941486;29;20055;-93
2021/01/20 02:25:12;;;;;;;45.53;22.80;;;;;;;;;;4940808;29;20422;-90
2021/01/20 02:27:58;;;;;;;56.38;27.33;;;;;;;;;;4924063;29;20043;-88
2021/01/20 02:30:25;;;;;;;107.13;47.90;;;;;;;;;;4900971;29;20057;-91
2021/01/20 02:32:53;;;;;;;86.78;43.55;;;;;;;;;;4901404;29;20089;-90
2021/01/20 02:35:20;;;;;;;138.40;47.72;;;;;;;;;;4901409;29;20041;-91
2021/01/20 02:37:47;;;;;;;132.27;40.92;;;;;;;;;;4901204;29;20455;-90
2021/01/20 02:40:13;;;;;;;123.05;36.63;;;;;;;;;;4901390;29;20036;-90
2021/01/20 02:42:44;;;;;;;174.07;43.03;;;;;;;;;;4901288;29;20032;-91
2021/01/20 02:45:11;;;;;;;192.95;53.35;;;;;;;;;;4901144;29;20111;-92
2021/01/20 02:47:37;;;;;;;135.50;49.35;;;;;;;;;;4901083;29;20040;-90
2021/01/20 02:50:05;;;;;;;153.63;49.83;;;;;;;;;;4901050;29;20051;-89
2021/01/20 02:52:52;;;;;;;188.70;51.55;;;;;;;;;;4885212;29;20032;-90
2021/01/20 02:55:20;;;;;;;222.30;52.60;;;;;;;;;;4900992;29;20040;-91
2021/01/20 02:57:47;;;;;;;197.50;53.65;;;;;;;;;;4900779;29;20077;-91
2021/01/20 03:00:14;;;;;;;205.55;55.47;;;;;;;;;;4900774;29;20176;-89
2021/01/20 03:02:41;;;;;;;216.00;56.50;;;;;;;;;;4901164;29;20427;-91
2021/01/20 03:05:08;;;;;;;202.75;52.20;;;;;;;;;;4900765;29;20061;-89
2021/01/20 03:07:35;;;;;;;221.32;55.13;;;;;;;;;;4922602;29;20043;-91
2021/01/20 03:10:01;;;;;;;189.82;47.80;;;;;;;;;;4940530;29;20028;-90
2021/01/20 03:12:31;;;;;;;136.93;37.55;;;;;;;;;;4940400;29;20111;-91
2021/01/20 03:15:01;;;;;;;200.55;47.58;;;;;;;;;;4940597;29;20039;-88
2021/01/20 03:17:30;;;;;;;187.27;52.72;;;;;;;;;;4940049;29;20028;-90
2021/01/20 03:20:27;;;;;;;114.68;40.28;;;;;;;;;;4940505;29;20024;-90
2021/01/20 03:22:53;;;;;;;127.68;39.55;;;;;;;;;;4940100;29;20031;-91
2021/01/20 03:25:19;;;;;;;120.47;38.10;;;;;;;;;;4940388;29;20087;-91
2021/01/20 03:27:45;;;;;;;117.95;37.13;;;;;;;;;;4940585;29;20055;-90
2021/01/20 03:30:11;;;;;;;113.93;35.00;;;;;;;;;;4939960;29;20051;-90
2021/01/20 03:32:37;;;;;;;89.75;29.88;;;;;;;;;;4922976;29;20438;-91
2021/01/20 03:35:04;;;;;;;65.93;25.27;;;;;;;;;;4940532;29;20035;-90
2021/01/20 03:37:30;;;;;;;56.00;24.00;;;;;;;;;;4940278;29;20035;-90
2021/01/20 03:39:56;;;;;;;68.97;24.85;;;;;;;;;;4940267;29;20067;-91
2021/01/20 03:42:22;;;;;;;67.30;23.40;;;;;;;;;;4940255;29;20055;-90
2021/01/20 03:44:48;;;;;;;62.40;24.05;;;;;;;;;;4940323;29;20020;-91
2021/01/20 03:47:14;;;;;;;43.25;18.83;;;;;;;;;;4939896;29;20412;-90
2021/01/20 03:49:40;;;;;;;32.90;16.02;;;;;;;;;;4940231;29;20344;-92
2021/01/20 03:52:06;;;;;;;29.90;15.82;;;;;;;;;;4940175;29;20418;-92
2021/01/20 03:54:32;;;;;;;28.33;14.20;;;;;;;;;;4940028;29;20459;-93
2021/01/20 03:56:58;;;;;;;28.00;13.73;;;;;;;;;;4923130;29;20028;-93
2021/01/20 03:59:24;;;;;;;25.42;11.85;;;;;;;;;;4939390;29;20426;-90
2021/01/20 04:01:50;;;;;;;21.27;11.25;;;;;;;;;;4940141;29;20024;-90
2021/01/20 04:04:16;;;;;;;23.98;11.93;;;;;;;;;;4940088;29;20079;-91
2021/01/20 04:06:43;;;;;;;26.58;12.43;;;;;;;;;;4940040;29;20039;-91
2021/01/20 04:09:09;;;;;;;24.05;11.60;;;;;;;;;;4922726;29;20036;-92
2021/01/20 04:11:35;;;;;;;28.48;11.57;;;;;;;;;;4939907;29;20035;-92
2021/01/20 04:14:01;;;;;;;46.10;17.50;;;;;;;;;;4939859;29;20070;-90
2021/01/20 04:16:27;;;;;;;34.17;16.17;;;;;;;;;;4924744;29;20407;-92
2021/01/20 04:18:53;;;;;;;26.13;12.68;;;;;;;;;;4926437;29;20027;-92
2021/01/20 04:21:56;;;;;;;27.10;12.73;;;;;;;;;;4943081;29;20023;-92
2021/01/20 04:24:22;;;;;;;;;;;;;;;;;;4943353;29;20220;-92
2021/01/20 04:26:48;;;;;;;35.55;13.90;;;;;;;;;;4943329;29;19906;-91
2021/01/20 04:29:16;;;;;;;42.15;16.20;;;;;;;;;;4942676;29;20107;-92
2021/01/20 04:31:42;;;;;;;41.35;15.55;;;;;;;;;;4943138;29;20047;-92
2021/01/20 04:34:09;;;;;;;32.35;15.00;;;;;;;;;;4943031;29;20083;-94
2021/01/20 04:36:35;;;;;;;30.48;14.00;;;;;;;;;;4943240;29;20102;-94
2021/01/20 04:39:01;;;;;;;37.22;15.70;;;;;;;;;;4942755;29;20023;-95
2021/01/20 04:41:27;;;;;;;35.00;15.95;;;;;;;;;;4925784;29;20040;-92
2021/01/20 04:43:55;;;;;;;44.40;17.10;;;;;;;;;;4942729;29;20051;-94
2021/01/20 04:46:22;;;;;;;34.25;15.43;;;;;;;;;;4942767;29;20030;-94
2021/01/20 04:48:49;;;;;;;37.55;15.98;;;;;;;;;;4941320;29;20043;-93
2021/01/20 04:51:19;;;;;;;36.90;15.82;;;;;;;;;;4942655;29;20035;-93
2021/01/20 04:53:45;;;;;;;29.42;14.68;;;;;;;;;;4942669;29;20028;-92
2021/01/20 04:56:13;;;;;;;25.80;12.80;;;;;;;;;;4942553;29;20019;-91
2021/01/20 04:58:39;;;;;;;24.80;12.85;;;;;;;;;;4942418;29;20038;-90
2021/01/20 05:01:05;;;;;;;25.83;13.25;;;;;;;;;;4942122;29;20072;-89
2021/01/20 05:03:31;;;;;;;29.33;14.38;;;;;;;;;;4942619;29;20119;-89
2021/01/20 05:05:57;;;;;;;26.13;14.05;;;;;;;;;;4925329;29;20036;-89
2021/01/20 05:08:24;;;;;;;21.45;12.30;;;;;;;;;;4942055;29;20024;-89
2021/01/20 05:10:50;;;;;;;27.08;16.17;;;;;;;;;;4924992;29;20035;-81
2021/01/20 05:13:29;;;;;;;26.40;15.57;;;;;;;;;;4941670;29;20051;-82
2021/01/20 05:15:56;;;;;;;30.45;16.50;;;;;;;;;;4941220;29;20035;-81
2021/01/20 05:18:22;;;;;;;32.53;18.45;;;;;;;;;;4941488;29;20024;-81
2021/01/20 05:20:48;;;;;;;27.33;17.05;;;;;;;;;;4941397;29;20023;-81
2021/01/20 05:23:14;;;;;;;23.85;14.57;;;;;;;;;;4941383;29;20024;-82
2021/01/20 05:25:50;;;;;;;22.58;13.10;;;;;;;;;;4941183;29;20170;-82
2021/01/20 05:28:26;;;;;;;24.75;13.68;;;;;;;;;;4923927;29;20127;-81
2021/01/20 05:30:57;;;;;;;20.88;13.10;;;;;;;;;;4941166;29;20052;-81
2021/01/20 05:33:24;;;;;;;29.17;15.85;;;;;;;;;;4941343;29;20028;-81
2021/01/20 05:36:04;;;;;;;37.35;19.60;;;;;;;;;;4941150;29;20104;-82
2021/01/20 05:38:34;;;;;;;34.55;18.52;;;;;;;;;;4941127;29;20024;-81
2021/01/20 05:41:14;;;;;;;28.35;16.40;;;;;;;;;;4941089;29;20055;-82
2021/01/20 05:43:40;;;;;;;25.27;14.30;;;;;;;;;;4941135;29;20028;-82
2021/01/20 05:46:06;;;;;;;27.20;15.60;;;;;;;;;;4940986;29;20038;-81
2021/01/20 05:48:32;;;;;;;25.48;13.52;;;;;;;;;;4941051;29;20059;-82
2021/01/20 05:50:58;;;;;;;33.28;16.92;;;;;;;;;;4940710;29;20043;-82
2021/01/20 05:53:25;;;;;;;31.02;14.57;;;;;;;;;;4940951;29;20019;-82
2021/01/20 05:56:01;;;;;;;26.38;14.63;;;;;;;;;;4924095;29;20107;-82
2021/01/20 05:58:45;;;;;;;40.60;18.65;;;;;;;;;;4940870;29;20086;-82
2021/01/20 06:01:11;;;;;;;58.17;23.00;;;;;;;;;;4923584;29;20031;-81
2021/01/20 06:03:38;;;;;;;49.42;21.60;;;;;;;;;;4940583;29;20047;-83
2021/01/20 06:06:07;;;;;;;50.47;21.42;;;;;;;;;;4940585;29;20115;-81
2021/01/20 06:08:34;;;;;;;45.47;21.58;;;;;;;;;;4940488;29;20036;-82
2021/01/20 06:11:00;;;;;;;219.57;71.63;;;;;;;;;;4940579;29;20031;-82
2021/01/20 06:13:26;;;;;;;178.10;65.60;;;;;;;;;;4940580;29;20209;-82
2021/01/20 06:15:54;;;;;;;148.88;56.60;;;;;;;;;;4940541;29;20079;-82
2021/01/20 06:18:23;;;;;;;98.25;41.67;;;;;;;;;;4940317;29;20020;-82
2021/01/20 06:20:51;;;;;;;121.47;46.10;;;;;;;;;;4940288;29;20419;-82
2021/01/20 06:23:22;;;;;;;143.88;56.83;;;;;;;;;;4923085;29;20040;-82
2021/01/20 06:25:49;;;;;;;122.82;53.53;;;;;;;;;;4923401;29;20063;-82
2021/01/20 06:28:16;;;;;;;99.82;47.60;;;;;;;;;;4940378;29;20019;-81
2021/01/20 06:30:43;;;;;;;129.48;57.53;;;;;;;;;;4940216;29;20052;-81
2021/01/20 06:33:10;;;;;;;125.38;52.63;;;;;;;;;;4955121;29;20331;-82
2021/01/20 06:35:44;;;;;;;87.72;39.53;;;;;;;;;;4940003;29;20399;-82
2021/01/20 06:38:28;;;;;;;112.18;48.40;;;;;;;;;;4939666;29;20023;-82
2021/01/20 06:40:58;;;;;;;101.63;50.38;;;;;;;;;;4940228;29;20047;-82
2021/01/20 06:43:43;;;;;;;102.18;51.00;;;;;;;;;;4939977;29;20031;-82
2021/01/20 06:46:16;;;;;;;89.28;41.95;;;;;;;;;;4940117;29;20058;-82
2021/01/20 06:48:54;;;;;;;102.32;50.50;;;;;;;;;;4940137;29;20036;-82
2021/01/20 06:51:22;;;;;;;88.15;44.35;;;;;;;;;;4939842;29;20123;-82
2021/01/20 06:54:10;;;;;;;95.20;48.42;;;;;;;;;;4939860;29;20032;-81
2021/01/20 06:56:49;;;;;;;98.75;50.80;;;;;;;;;;4922716;29;20389;-82
2021/01/20 06:59:19;;;;;;;129.02;63.95;;;;;;;;;;4939537;29;20032;-82
2021/01/20 07:02:09;;;;;;;196.02;89.28;;;;;;;;;;4923146;29;20032;-81
2021/01/20 07:04:38;;;;;;;220.05;99.72;;;;;;;;;;4899983;29;20036;-82
2021/01/20 07:07:04;;;;;;;171.00;80.93;;;;;;;;;;4900189;29;20369;-81
2021/01/20 07:09:50;;;;;;;125.20;57.05;;;;;;;;;;4900298;29;20160;-82
2021/01/20 07:12:16;;;;;;;111.32;50.85;;;;;;;;;;4884640;29;20073;-81
2021/01/20 07:14:43;;;;;;;104.72;48.53;;;;;;;;;;4899882;29;20070;-82
2021/01/20 07:17:09;;;;;;;165.32;68.95;;;;;;;;;;4900143;29;20051;-82
2021/01/20 07:19:37;;;;;;;155.30;63.20;;;;;;;;;;4900069;29;20050;-82
2021/01/20 07:22:04;;;;;;;133.30;57.28;;;;;;;;;;4884368;29;20033;-82
2021/01/20 07:24:30;;;;;;;220.20;82.88;;;;;;;;;;4900089;29;20032;-81
2021/01/20 07:26:56;;;;;;;195.65;74.18;;;;;;;;;;4899930;29;20029;-82
2021/01/20 07:29:22;;;;;;;184.82;66.35;;;;;;;;;;4899663;29;20177;-82
2021/01/20 07:31:50;;;;;;;153.23;62.25;;;;;;;;;;4884340;29;20335;-81
2021/01/20 07:34:16;;;;;;;170.88;78.38;;;;;;;;;;4899901;29;20725;-81
2021/01/20 07:36:42;;;;;;;266.98;114.82;;;;;;;;;;4884463;29;20045;-82
2021/01/20 07:39:25;;;;;;;266.35;123.82;;;;;;;;;;4899833;29;20035;-82
2021/01/20 07:41:56;;;;;;;166.68;77.03;;;;;;;;;;4924988;29;20032;-82
2021/01/20 07:44:22;;;;;;;141.35;58.88;;;;;;;;;;4939507;29;20039;-82
2021/01/20 07:47:02;;;;;;;131.68;60.33;;;;;;;;;;4922306;29;20042;-82
2021/01/20 07:49:28;;;;;;;129.50;59.63;;;;;;;;;;4922223;29;20040;-82
2021/01/20 07:52:00;;;;;;;86.03;42.25;;;;;;;;;;4941933;29;20027;-83
2021/01/20 07:54:26;;;;;;;90.15;40.53;;;;;;;;;;4943157;29;20032;-83
2021/01/20 07:56:52;;;;;;;102.60;43.15;;;;;;;;;;4926066;29;20035;-83
2021/01/20 07:59:19;;;;;;;88.88;38.30;;;;;;;;;;4943080;29;20042;-85
2021/01/20 08:01:46;;;;;;;65.88;31.08;;;;;;;;;;4942966;29;20028;-85
2021/01/20 08:04:27;;;;;;;54.55;27.70;;;;;;;;;;4926030;29;20032;-82
2021/01/20 08:06:53;;;;;;;38.90;19.05;;;;;;;;;;4942863;29;20334;-82
2021/01/20 08:09:21;;;;;;;26.42;14.88;;;;;;;;;;4925780;29;20039;-83
2021/01/20 08:11:47;;;;;;;32.25;16.98;;;;;;;;;;4942768;29;20035;-82
2021/01/20 08:14:14;;;;;;;34.70;19.88;;;;;;;;;;4942554;29;20110;-82
2021/01/20 08:16:40;;;;;;;31.40;17.17;;;;;;;;;;4942709;29;20023;-82
2021/01/20 08:19:07;;;;;;;25.95;14.60;;;;;;;;;;4942754;29;20023;-82
2021/01/20 08:21:33;;;;;;;24.48;14.73;;;;;;;;;;4942645;29;20027;-82
2021/01/20 08:24:05;;;;;;;27.70;15.13;;;;;;;;;;4942656;29;20106;-82
2021/01/20 08:26:32;;;;;;;28.10;14.52;;;;;;;;;;4942481;29;20059;-82
2021/01/20 08:29:01;;;;;;;29.23;15.85;;;;;;;;;;4942310;29;20059;-82
2021/01/20 08:31:27;;;;;;;33.05;18.70;;;;;;;;;;4942317;29;20019;-82
2021/01/20 08:34:12;;;;;;;40.03;22.33;;;;;;;;;;4942094;29;20042;-82
2021/01/20 08:36:38;;;;;;;47.47;25.77;;;;;;;;;;4942165;29;20024;-82
2021/01/20 08:39:07;;;;;;;41.75;24.40;;;;;;;;;;4942332;29;20026;-82
2021/01/20 08:41:33;;;;;;;48.20;23.35;;;;;;;;;;4925355;29;20034;-82
2021/01/20 08:44:16;;;;;;;82.35;30.02;;;;;;;;;;4941828;29;20423;-82
2021/01/20 08:46:42;;;;;;;81.10;26.48;;;;;;;;;;4942176;29;20035;-82
2021/01/20 08:49:08;;;;;;;32.67;15.07;;;;;;;;;;4942110;29;20035;-82
2021/01/20 08:51:34;;;;;;;31.20;15.82;;;;;;;;;;4924872;29;20510;-83
2021/01/20 08:54:11;;;;;;;28.20;14.35;;;;;;;;;;4942272;29;20036;-83
2021/01/20 08:56:37;;;;;;;30.65;14.43;;;;;;;;;;4942036;29;20044;-82
2021/01/20 08:59:03;;;;;;;30.77;13.85;;;;;;;;;;4941926;29;20035;-83
2021/01/20 09:01:29;;;;;;;29.95;14.20;;;;;;;;;;4941448;29;20058;-83
2021/01/20 09:04:02;;;;;;;23.73;12.95;;;;;;;;;;4925103;29;20071;-83
2021/01/20 09:06:28;;;;;;;;;;;;;;;;;;4942300;29;20032;-83
2021/01/20 09:08:54;;;;;;;34.63;16.38;;;;;;;;;;4941902;29;19931;-83
2021/01/20 09:11:21;;;;;;;31.25;16.33;;;;;;;;;;4925044;29;20059;-82
2021/01/20 09:13:47;;;;;;;34.15;16.70;;;;;;;;;;4924325;29;20039;-83
2021/01/20 09:16:14;;;;;;;32.58;15.98;;;;;;;;;;4941662;29;20027;-82
2021/01/20 09:18:40;;;;;;;28.23;15.88;;;;;;;;;;4924437;29;20318;-82
2021/01/20 09:21:06;;;;;;;29.20;15.27;;;;;;;;;;4941445;29;20024;-82
2021/01/20 09:23:32;;;;;;;28.08;14.68;;;;;;;;;;4941546;29;20399;-83
2021/01/20 09:25:58;;;;;;;28.88;17.15;;;;;;;;;;4941672;29;20027;-82
2021/01/20 09:28:24;;;;;;;108.65;57.35;;;;;;;;;;4941271;29;20398;-82
2021/01/20 09:30:51;;;;;;;85.20;41.08;;;;;;;;;;4941246;29;20059;-82
2021/01/20 09:33:17;;;;;;;38.65;21.10;;;;;;;;;;4924332;29;20036;-82
2021/01/20 09:35:46;;;;;;;50.42;23.52;;;;;;;;;;4924503;29;20406;-82
2021/01/20 09:38:12;;;;;;;32.45;17.58;;;;;;;;;;4924191;29;20034;-82
2021/01/20 09:40:38;;;;;;;55.03;28.90;;;;;;;;;;4924471;29;20415;-83
2021/01/20 09:43:04;;;;;;;61.00;30.67;;;;;;;;;;4940958;29;20039;-82
2021/01/20 09:45:32;;;;;;;54.00;27.00;;;;;;;;;;4941090;29;20230;-83
2021/01/20 09:47:59;;;;;;;252.63;139.35;;;;;;;;;;4941058;29;20028;-82
2021/01/20 09:50:26;;;;;;;43.03;24.33;;;;;;;;;;4940795;29;20028;-82
2021/01/20 09:52:55;;;;;;;42.50;24.63;;;;;;;;;;4941193;29;20028;-82
2021/01/20 09:55:21;;;;;;;103.32;53.78;;;;;;;;;;4940896;29;20015;-82
2021/01/20 09:57:47;;;;;;;49.15;28.77;;;;;;;;;;4940903;29;20051;-83
2021/01/20 10:00:14;;;;;;;44.67;24.10;;;;;;;;;;4940977;29;20042;-83
2021/01/20 10:02:41;;;;;;;52.95;27.77;;;;;;;;;;4940826;29;20035;-83
2021/01/20 10:05:08;;;;;;;59.97;28.65;;;;;;;;;;4940759;29;20067;-83
2021/01/20 10:07:34;;;;;;;49.28;27.25;;;;;;;;;;4940516;29;20050;-83
2021/01/20 10:10:00;;;;;;;73.50;35.20;;;;;;;;;;4923566;29;20031;-83
2021/01/20 10:12:26;;;;;;;43.05;24.92;;;;;;;;;;4940647;29;20047;-83
2021/01/20 10:14:52;;;;;;;56.28;28.80;;;;;;;;;;4940029;29;20054;-83
2021/01/20 10:17:18;;;;;;;85.75;41.88;;;;;;;;;;4923995;29;20370;-84
2021/01/20 10:19:46;;;;;;;58.85;27.58;;;;;;;;;;4923871;29;20059;-84
2021/01/20 10:22:12;;;;;;;249.70;91.60;;;;;;;;;;4940833;29;20115;-82
2021/01/20 10:24:38;;;;;;;50.80;24.23;;;;;;;;;;4940753;29;20395;-87
2021/01/20 10:27:04;;;;;;;120.72;42.95;;;;;;;;;;4941192;29;20051;-85
2021/01/20 10:29:30;;;;;;;59.58;26.77;;;;;;;;;;4923254;29;20461;-85
2021/01/20 10:31:56;;;;;;;47.15;21.50;;;;;;;;;;4940669;29;20422;-85
2021/01/20 10:34:22;;;;;;;34.58;16.88;;;;;;;;;;4940705;29;20049;-86
2021/01/20 10:36:48;;;;;;;391.55;160.73;;;;;;;;;;4940422;29;20024;-85
2021/01/20 10:39:14;;;;;;;87.47;36.63;;;;;;;;;;4940693;29;20027;-86
2021/01/20 10:41:40;;;;;;;121.97;56.33;;;;;;;;;;4940586;29;20024;-85
2021/01/20 10:44:07;;;;;;;421.10;175.50;;;;;;;;;;4940981;29;20319;-87
2021/01/20 10:46:33;;;;;;;89.07;38.33;;;;;;;;;;4940702;29;20039;-86
2021/01/20 10:49:01;;;;;;;93.40;43.78;;;;;;;;;;4940594;29;20024;-87
2021/01/20 10:51:34;;;;;;;123.72;51.63;;;;;;;;;;4940205;29;20031;-85
2021/01/20 10:54:04;;;;;;;77.82;36.47;;;;;;;;;;4923447;29;20415;-87
2021/01/20 10:56:30;;;;;;;106.88;45.08;;;;;;;;;;4923301;29;20079;-86
2021/01/20 10:58:56;;;;;;;200.73;81.38;;;;;;;;;;4923502;29;20027;-86
2021/01/20 11:01:22;;;;;;;119.10;50.25;;;;;;;;;;4940371;29;20028;-86
2021/01/20 11:03:48;;;;;;;308.48;117.93;;;;;;;;;;4940166;29;20485;-87
2021/01/20 11:06:15;;;;;;;165.57;72.38;;;;;;;;;;4940264;29;20044;-86
2021/01/20 11:08:41;;;;;;;94.68;43.92;;;;;;;;;;4923215;29;20311;-87
2021/01/20 11:11:07;;;;;;;231.30;89.60;;;;;;;;;;4940274;29;20031;-86
2021/01/20 11:13:33;;;;;;;229.55;89.05;;;;;;;;;;4923368;29;20028;-86
2021/01/20 11:16:02;;;;;;;260.17;94.18;;;;;;;;;;4940448;29;20327;-86
2021/01/20 11:18:31;;;;;;;356.65;129.88;;;;;;;;;;4923384;29;20055;-87
2021/01/20 11:20:57;;;;;;;217.70;87.47;;;;;;;;;;4922798;29;20032;-87
2021/01/20 11:23:26;;;;;;;148.68;61.50;;;;;;;;;;4940259;29;20035;-86
2021/01/20 11:25:53;;;;;;;218.07;83.95;;;;;;;;;;4942908;29;20162;-87
2021/01/20 11:28:19;;;;;;;171.68;69.22;;;;;;;;;;4943607;29;20027;-87
2021/01/20 11:30:45;;;;;;;65.10;30.88;;;;;;;;;;4926696;29;20047;-87
2021/01/20 11:33:12;;;;;;;73.88;32.92;;;;;;;;;;4943955;29;20035;-87
2021/01/20 11:35:38;;;;;;;146.40;61.20;;;;;;;;;;4926877;29;20030;-87
2021/01/20 11:38:05;;;;;;;361.75;141.23;;;;;;;;;;4943932;29;20051;-87
2021/01/20 11:40:32;;;;;;;631.20;291.33;;;;;;;;;;4943951;29;20031;-86
2021/01/20 11:42:58;;;;;;;314.27;127.88;;;;;;;;;;4926672;29;20036;-87
2021/01/20 11:45:30;;;;;;;488.42;219.30;;;;;;;;;;4943730;29;20059;-86
2021/01/20 11:47:57;;;;;;;749.03;357.38;;;;;;;;;;4943600;29;20082;-87
2021/01/20 11:50:23;;;;;;;966.58;491.05;;;;;;;;;;4943636;29;20031;-86
2021/01/20 11:52:51;;;;;;;402.52;173.85;;;;;;;;;;4943681;29;20067;-86
2021/01/20 11:55:18;;;;;;;469.63;193.60;;;;;;;;;;4927238;29;20032;-85
2021/01/20 11:57:44;;;;;;;1402.75;612.22;;;;;;;;;;4943844;29;20425;-86
2021/01/20 12:00:10;;;;;;;468.20;191.32;;;;;;;;;;4943369;29;20031;-85
2021/01/20 12:02:37;;;;;;;1107.00;482.58;;;;;;;;;;4943352;29;20143;-84
2021/01/20 12:05:05;;;;;;;933.40;393.90;;;;;;;;;;4943431;29;20027;-85
2021/01/20 12:07:31;;;;;;;605.10;231.05;;;;;;;;;;4926439;29;20031;-85
2021/01/20 12:09:57;;;;;;;571.22;219.95;;;;;;;;;;4943297;29;20079;-85
2021/01/20 12:12:23;;;;;;;813.85;327.90;;;;;;;;;;4943047;29;20058;-85
2021/01/20 12:14:49;;;;;;;1628.32;632.65;;;;;;;;;;4943115;29;20119;-85
2021/01/20 12:17:15;;;;;;;1834.05;715.97;;;;;;;;;;4942833;29;20082;-85
2021/01/20 12:19:41;;;;;;;798.42;353.73;;;;;;;;;;4926141;29;20079;-85
2021/01/20 12:22:07;;;;;;;1104.47;483.08;;;;;;;;;;4943085;29;20035;-85
2021/01/20 12:24:34;;;;;;;1113.53;523.75;;;;;;;;;;4942691;29;20032;-84
2021/01/20 12:27:00;;;;;;;1140.22;537.60;;;;;;;;;;4942995;29;20024;-84
2021/01/20 12:29:26;;;;;;;970.03;464.08;;;;;;;;;;4924968;29;20047;-84
2021/01/20 12:31:52;;;;;;;1052.75;510.02;;;;;;;;;;4942672;29;20536;-83
2021/01/20 12:34:18;;;;;;;731.33;346.70;;;;;;;;;;4942121;29;20032;-83
2021/01/20 12:36:45;;;;;;;731.38;350.50;;;;;;;;;;4941574;29;20403;-84
2021/01/20 12:39:11;;;;;;;795.92;395.95;;;;;;;;;;4942621;29;20031;-84
2021/01/20 12:41:37;;;;;;;589.47;283.20;;;;;;;;;;4942676;29;20030;-83
2021/01/20 12:44:03;;;;;;;453.65;203.32;;;;;;;;;;4942252;29;20032;-83
2021/01/20 12:46:29;;;;;;;242.57;100.82;;;;;;;;;;4942458;29;20027;-83
2021/01/20 12:48:55;;;;;;;385.30;157.18;;;;;;;;;;4942006;29;20031;-83
2021/01/20 12:51:21;;;;;;;551.75;260.42;;;;;;;;;;4941838;29;20032;-83
2021/01/20 12:53:48;;;;;;;625.20;303.55;;;;;;;;;;4942254;29;20059;-83
2021/01/20 12:56:14;;;;;;;1269.20;625.97;;;;;;;;;;4941887;29;20027;-82
2021/01/20 12:58:40;;;;;;;1291.72;635.38;;;;;;;;;;4942107;29;20120;-83
2021/01/20 13:01:06;;;;;;;649.42;322.40;;;;;;;;;;4941794;29;20481;-82
2021/01/20 13:03:32;;;;;;;1296.80;591.47;;;;;;;;;;4941518;29;20066;-83
2021/01/20 13:05:58;;;;;;;1650.03;696.67;;;;;;;;;;4941567;29;20024;-82
2021/01/20 13:08:25;;;;;;;1595.45;679.85;;;;;;;;;;4923653;29;20091;-82
2021/01/20 13:10:51;;;;;;;1567.75;675.80;;;;;;;;;;4941469;29;20315;-83
2021/01/20 13:13:17;;;;;;;1865.80;751.33;;;;;;;;;;4940622;29;20482;-82
2021/01/20 13:15:47;;;;;;;1735.45;722.92;;;;;;;;;;4941476;29;20131;-82
2021/01/20 13:18:13;;;;;;;1592.45;687.13;;;;;;;;;;4941532;29;20091;-81
2021/01/20 13:20:39;;;;;;;1785.53;751.92;;;;;;;;;;4941353;29;20418;-82
2021/01/20 13:23:05;;;;;;;1662.88;739.63;;;;;;;;;;4941279;29;20032;-81
2021/01/20 13:25:31;;;;;;;1797.57;806.50;;;;;;;;;;4924596;29;20043;-81
2021/01/20 13:27:57;;;;;;;1143.00;599.58;;;;;;;;;;4924374;29;20419;-81
2021/01/20 13:30:23;;;;;;;782.13;422.85;;;;;;;;;;4941024;29;20056;-81
2021/01/20 13:32:49;;;;;;;684.55;364.25;;;;;;;;;;4923888;29;20048;-81
2021/01/20 13:35:16;;;;;;;533.60;272.92;;;;;;;;;;4941117;29;20114;-81
2021/01/20 13:37:42;;;;;;;366.45;162.98;;;;;;;;;;4941318;29;20031;-81
2021/01/20 13:40:09;;;;;;;391.67;177.25;;;;;;;;;;4941277;29;20330;-81
2021/01/20 13:42:35;;;;;;;302.05;135.75;;;;;;;;;;4941144;29;20027;-81
2021/01/20 13:45:01;;;;;;;212.73;97.90;;;;;;;;;;4941234;29;20047;-81
2021/01/20 13:47:27;;;;;;;142.45;65.43;;;;;;;;;;4923770;29;20036;-81
2021/01/20 13:49:53;;;;;;;155.70;67.78;;;;;;;;;;4940904;29;20034;-80
2021/01/20 13:52:19;;;;;;;98.53;45.65;;;;;;;;;;4940713;29;20031;-81
2021/01/20 13:54:45;;;;;;;125.97;54.58;;;;;;;;;;4940529;29;20024;-81
2021/01/20 13:57:11;;;;;;;143.38;59.97;;;;;;;;;;4940717;29;20395;-80
2021/01/20 13:59:38;;;;;;;175.18;71.22;;;;;;;;;;4940703;29;20128;-80
2021/01/20 14:02:04;;;;;;;170.20;69.75;;;;;;;;;;4940657;29;20054;-79
2021/01/20 14:04:31;;;;;;;135.38;55.38;;;;;;;;;;4940599;29;20028;-80
2021/01/20 14:06:58;;;;;;;151.35;62.50;;;;;;;;;;4923648;29;20079;-80
2021/01/20 14:09:24;;;;;;;150.68;63.55;;;;;;;;;;4923746;29;20027;-80
2021/01/20 14:11:50;;;;;;;121.75;57.35;;;;;;;;;;4940738;29;20103;-80
2021/01/20 14:14:16;;;;;;;130.48;60.20;;;;;;;;;;4940390;29;20349;-80
2021/01/20 14:16:42;;;;;;;107.03;52.70;;;;;;;;;;4923254;29;20335;-80
2021/01/20 14:19:08;;;;;;;129.88;61.75;;;;;;;;;;4940384;29;20023;-80
2021/01/20 14:21:34;;;;;;;147.18;72.05;;;;;;;;;;4940436;29;20318;-80